createdAt,value
2018-04-07T00:00:55.515Z,50.1
2018-04-07T00:02:02.235Z,48
2018-04-07T00:03:08.853Z,48.1
2018-04-07T00:04:15.809Z,48
2018-04-07T00:05:22.753Z,48.7
2018-04-07T00:06:29.672Z,49.7
2018-04-07T00:07:36.871Z,51
2018-04-07T00:08:44.071Z,52.8
2018-04-07T00:09:51.306Z,52
2018-04-07T00:10:58.646Z,54.1
2018-04-07T00:12:05.858Z,48.5
2018-04-07T00:13:13.064Z,50.1
2018-04-07T00:14:19.714Z,51.5
2018-04-07T00:15:26.376Z,52.2
2018-04-07T00:16:33.309Z,53.4
2018-04-07T00:17:40.520Z,60.6
2018-04-07T00:18:47.445Z,58.8
2018-04-07T00:19:54.654Z,61.9
2018-04-07T00:21:01.587Z,56.4
2018-04-07T00:22:07.963Z,67.3
2018-04-07T00:23:14.891Z,59.3
2018-04-07T00:24:22.103Z,61.4
2018-04-07T00:25:29.317Z,60.1
2018-04-07T00:26:36.529Z,63.9
2018-04-07T00:27:43.736Z,62.3
2018-04-07T00:28:50.667Z,63.6
2018-04-07T00:29:57.873Z,63.6
2018-04-07T00:31:05.080Z,75.9
2018-04-07T00:32:11.744Z,78.4
2018-04-07T00:33:18.948Z,78.4
2018-04-07T00:34:25.878Z,78.2
2018-04-07T00:35:33.081Z,81.8
2018-04-07T00:36:40.277Z,88.9
2018-04-07T00:37:47.492Z,82
2018-04-07T00:38:54.707Z,78.3
2018-04-07T00:40:01.920Z,80
2018-04-07T00:41:08.845Z,89.5
2018-04-07T00:42:15.796Z,90.3
2018-04-07T00:43:22.997Z,83
2018-04-07T00:44:30.201Z,91.8
2018-04-07T00:45:37.410Z,94.5
2018-04-07T00:46:44.350Z,88.6
2018-04-07T00:47:51.003Z,92.4
2018-04-07T00:48:58.205Z,94.2
2018-04-07T00:50:04.865Z,93.8
2018-04-07T00:51:11.533Z,94.8
2018-04-07T00:52:18.744Z,95
2018-04-07T00:53:25.692Z,98
2018-04-07T00:54:32.900Z,95.3
2018-04-07T00:55:39.823Z,98
2018-04-07T00:56:46.483Z,96.6
2018-04-07T00:57:53.684Z,97.1
2018-04-07T00:59:00.620Z,97.7
2018-04-07T01:00:07.555Z,98.2
2018-04-07T01:01:14.485Z,98
2018-04-07T01:02:21.408Z,96.1
2018-04-07T01:03:28.338Z,97.1
2018-04-07T01:04:35.011Z,99.3
2018-04-07T01:05:42.212Z,96.1
2018-04-07T01:06:49.414Z,98.7
2018-04-07T01:07:56.333Z,99.9
2018-04-07T01:09:03.527Z,99.9
2018-04-07T01:10:10.731Z,99.9
2018-04-07T01:11:17.929Z,99.9
2018-04-07T01:12:25.141Z,99.9
2018-04-07T01:13:32.086Z,99.9
2018-04-07T01:14:39.300Z,99.9
2018-04-07T01:15:46.508Z,99.9
2018-04-07T01:16:53.716Z,99.9
2018-04-07T01:18:00.646Z,99.9
2018-04-07T01:19:07.828Z,99.9
2018-04-07T01:20:14.750Z,99.9
2018-04-07T01:21:21.954Z,99.9
2018-04-07T01:22:29.174Z,99.9
2018-04-07T01:23:36.116Z,99.9
2018-04-07T01:24:43.061Z,99.9
2018-04-07T01:25:50.267Z,99.9
2018-04-07T01:26:57.486Z,99.9
2018-04-07T01:28:04.414Z,99.9
2018-04-07T01:29:11.655Z,99.9
2018-04-07T01:30:18.857Z,99.9
2018-04-07T01:31:25.510Z,99.9
2018-04-07T01:32:32.424Z,99.9
2018-04-07T01:33:39.624Z,99.9
2018-04-07T01:34:46.826Z,99.9
2018-04-07T01:35:54.030Z,99.9
2018-04-07T01:37:00.971Z,99.9
2018-04-07T01:38:08.180Z,99.9
2018-04-07T01:39:14.838Z,99.9
2018-04-07T01:40:22.041Z,99.9
2018-04-07T01:41:29.242Z,99.9
2018-04-07T01:42:36.180Z,99.9
2018-04-07T01:43:43.384Z,99.9
2018-04-07T01:44:50.586Z,99.9
2018-04-07T01:45:57.509Z,99.9
2018-04-07T01:47:04.435Z,99.9
2018-04-07T01:48:10.810Z,99.9
2018-04-07T01:49:17.471Z,99.9
2018-04-07T01:50:24.671Z,99.9
2018-04-07T01:51:31.318Z,99.9
2018-04-07T01:52:38.521Z,99.9
2018-04-07T01:53:45.194Z,99.9
2018-04-07T01:54:52.122Z,99.9
2018-04-07T01:55:59.331Z,99.9
2018-04-07T01:57:06.258Z,99.9
2018-04-07T01:58:12.917Z,99.9
2018-04-07T01:59:20.115Z,99.9
2018-04-07T02:00:27.045Z,99.9
2018-04-07T02:01:33.974Z,99.9
2018-04-07T02:02:41.171Z,99.9
2018-04-07T02:03:48.098Z,99.9
2018-04-07T02:04:54.777Z,99.9
2018-04-07T02:06:01.426Z,99.9
2018-04-07T02:07:08.640Z,99.9
2018-04-07T02:08:15.840Z,99.9
2018-04-07T02:09:22.763Z,99.9
2018-04-07T02:10:29.684Z,99.9
2018-04-07T02:11:36.613Z,99.9
2018-04-07T02:12:43.821Z,99.9
2018-04-07T02:13:51.023Z,99.9
2018-04-07T02:14:58.231Z,99.9
2018-04-07T02:16:05.148Z,99.9
2018-04-07T02:17:12.352Z,99.9
2018-04-07T02:18:19.555Z,99.9
2018-04-07T02:19:26.767Z,99.9
2018-04-07T02:20:33.970Z,99.9
2018-04-07T02:21:40.336Z,99.9
2018-04-07T02:22:47.255Z,99.9
2018-04-07T02:23:54.452Z,99.9
2018-04-07T02:25:01.655Z,99.9
2018-04-07T02:26:08.023Z,99.9
2018-04-07T02:27:15.228Z,99.9
2018-04-07T02:28:22.434Z,99.9
2018-04-07T02:29:29.643Z,99.9
2018-04-07T02:30:36.586Z,99.9
2018-04-07T02:31:43.815Z,99.9
2018-04-07T02:32:51.059Z,99.9
2018-04-07T02:33:58.301Z,99.9
2018-04-07T02:35:05.496Z,99.9
2018-04-07T02:36:12.422Z,99.9
2018-04-07T02:37:19.623Z,99.9
2018-04-07T02:38:26.825Z,99.9
2018-04-07T02:39:34.035Z,99.9
2018-04-07T02:40:41.232Z,99.9
2018-04-07T02:41:47.893Z,99.9
2018-04-07T02:42:55.100Z,99.9
2018-04-07T02:44:02.308Z,99.9
2018-04-07T02:45:08.965Z,99.9
2018-04-07T02:46:15.895Z,99.9
2018-04-07T02:47:23.101Z,99.9
2018-04-07T02:48:30.022Z,99.9
2018-04-07T02:49:36.676Z,99.9
2018-04-07T02:50:43.888Z,99.9
2018-04-07T02:51:51.082Z,99.9
2018-04-07T02:52:58.292Z,99.9
2018-04-07T02:54:05.512Z,99.9
2018-04-07T02:55:12.717Z,99.9
2018-04-07T02:56:19.936Z,99.9
2018-04-07T02:57:27.140Z,99.9
2018-04-07T02:58:34.120Z,99.9
2018-04-07T03:01:03.192Z,99.9
2018-04-07T03:02:10.117Z,99.9
2018-04-07T03:03:17.053Z,99.9
2018-04-07T03:04:24.259Z,99.9
2018-04-07T03:05:30.916Z,99.9
2018-04-07T03:06:38.121Z,99.9
2018-04-07T03:07:45.057Z,99.9
2018-04-07T03:08:52.270Z,99.9
2018-04-07T03:09:59.200Z,99.9
2018-04-07T03:11:06.128Z,99.9
2018-04-07T03:12:13.331Z,99.9
2018-04-07T03:13:20.539Z,99.9
2018-04-07T03:14:27.739Z,99.9
2018-04-07T03:15:34.939Z,99.9
2018-04-07T03:16:42.164Z,99.9
2018-04-07T03:17:49.089Z,99.9
2018-04-07T03:18:56.309Z,99.9
2018-04-07T03:20:03.237Z,99.9
2018-04-07T03:21:10.435Z,99.9
2018-04-07T03:22:17.369Z,99.9
2018-04-07T03:23:24.301Z,99.9
2018-04-07T03:24:31.226Z,99.9
2018-04-07T03:25:38.421Z,99.9
2018-04-07T03:26:44.794Z,99.9
2018-04-07T03:27:51.452Z,99.9
2018-04-07T03:28:58.378Z,99.9
2018-04-07T03:30:05.317Z,99.9
2018-04-07T03:31:12.528Z,99.9
2018-04-07T03:32:19.728Z,99.9
2018-04-07T03:33:26.925Z,99.9
2018-04-07T03:34:34.124Z,99.9
2018-04-07T03:35:41.334Z,99.9
2018-04-07T03:36:48.537Z,99.9
2018-04-07T03:37:55.737Z,99.9
2018-04-07T03:39:02.678Z,99.9
2018-04-07T03:40:09.330Z,99.9
2018-04-07T03:41:16.265Z,99.9
2018-04-07T03:42:23.470Z,99.9
2018-04-07T03:43:30.671Z,99.9
2018-04-07T03:44:37.601Z,99.9
2018-04-07T03:45:43.973Z,99.9
2018-04-07T03:46:51.179Z,99.9
2018-04-07T03:47:58.106Z,99.9
2018-04-07T03:49:05.034Z,99.9
2018-04-07T03:50:11.956Z,99.9
2018-04-07T03:51:18.881Z,99.9
2018-04-07T03:52:26.096Z,99.9
2018-04-07T03:53:33.286Z,99.9
2018-04-07T03:54:40.206Z,99.9
2018-04-07T03:55:47.131Z,99.9
2018-04-07T03:56:54.061Z,99.9
2018-04-07T03:58:01.261Z,99.9
2018-04-07T03:59:08.472Z,99.9
2018-04-07T04:00:15.127Z,99.9
2018-04-07T04:01:21.781Z,99.9
2018-04-07T04:02:28.994Z,99.9
2018-04-07T04:03:35.647Z,99.9
2018-04-07T04:04:43.051Z,99.9
2018-04-07T04:05:49.986Z,99.9
2018-04-07T04:06:56.945Z,99.9
2018-04-07T04:08:03.876Z,99.9
2018-04-07T04:09:11.077Z,99.9
2018-04-07T04:10:18.016Z,99.9
2018-04-07T04:11:24.665Z,99.9
2018-04-07T04:12:31.865Z,99.9
2018-04-07T04:13:39.066Z,99.9
2018-04-07T04:14:46.267Z,99.9
2018-04-07T04:15:53.181Z,99.9
2018-04-07T04:17:00.397Z,99.9
2018-04-07T04:18:07.597Z,99.9
2018-04-07T04:19:14.530Z,99.9
2018-04-07T04:20:21.737Z,99.9
2018-04-07T04:21:28.959Z,99.9
2018-04-07T04:22:36.159Z,99.9
2018-04-07T04:23:43.362Z,99.9
2018-04-07T04:24:50.567Z,99.9
2018-04-07T04:25:57.772Z,99.9
2018-04-07T04:27:04.969Z,99.9
2018-04-07T04:28:11.905Z,99.9
2018-04-07T04:29:19.118Z,99.9
2018-04-07T04:30:26.330Z,99.9
2018-04-07T04:31:33.549Z,99.9
2018-04-07T04:32:40.487Z,99.9
2018-04-07T04:34:53.788Z,99.9
2018-04-07T04:36:00.984Z,99.9
2018-04-07T04:37:08.185Z,99.9
2018-04-07T04:38:15.380Z,99.9
2018-04-07T04:39:22.305Z,99.9
2018-04-07T04:40:29.512Z,99.9
2018-04-07T04:41:36.748Z,99.9
2018-04-07T04:42:43.936Z,99.9
2018-04-07T04:43:51.141Z,99.9
2018-04-07T04:44:58.341Z,99.9
2018-04-07T04:46:05.546Z,99.9
2018-04-07T04:47:12.198Z,99.9
2018-04-07T04:48:19.409Z,99.9
2018-04-07T04:49:26.336Z,99.9
2018-04-07T04:50:33.542Z,99.9
2018-04-07T04:51:40.747Z,99.9
2018-04-07T04:52:47.956Z,99.9
2018-04-07T04:53:55.168Z,99.9
2018-04-07T04:55:02.410Z,99.9
2018-04-07T04:56:09.735Z,99.9
2018-04-07T04:57:16.956Z,99.9
2018-04-07T04:58:24.157Z,99.9
2018-04-07T04:59:31.096Z,99.9
2018-04-07T05:00:38.306Z,99.9
2018-04-07T05:01:45.232Z,99.9
2018-04-07T05:02:52.436Z,99.9
2018-04-07T05:05:21.491Z,99.9
2018-04-07T05:06:28.411Z,99.9
2018-04-07T05:07:34.784Z,99.9
2018-04-07T05:08:41.709Z,99.9
2018-04-07T05:09:48.921Z,99.9
2018-04-07T05:10:55.574Z,99.9
2018-04-07T05:12:02.770Z,99.9
2018-04-07T05:13:09.975Z,99.9
2018-04-07T05:14:17.178Z,99.9
2018-04-07T05:15:24.377Z,99.9
2018-04-07T05:16:31.593Z,99.9
2018-04-07T05:17:38.541Z,99.9
2018-04-07T05:18:45.741Z,99.9
2018-04-07T05:19:52.940Z,99.9
2018-04-07T05:21:00.135Z,99.9
2018-04-07T05:22:07.353Z,99.9
2018-04-07T05:23:14.555Z,99.9
2018-04-07T05:24:22.021Z,99.9
2018-04-07T05:25:29.161Z,99.9
2018-04-07T05:26:36.100Z,99.9
2018-04-07T05:27:43.316Z,99.9
2018-04-07T05:28:50.246Z,99.9
2018-04-07T05:29:57.712Z,99.9
2018-04-07T05:31:04.916Z,99.9
2018-04-07T05:32:12.138Z,99.9
2018-04-07T05:33:19.361Z,99.9
2018-04-07T05:34:26.583Z,99.9
2018-04-07T05:35:33.804Z,99.9
2018-04-07T05:36:41.224Z,99.9
2018-04-07T05:37:48.455Z,99.9
2018-04-07T05:38:55.888Z,99.9
2018-04-07T05:40:03.094Z,99.9
2018-04-07T05:41:10.314Z,99.9
2018-04-07T05:42:17.532Z,99.9
2018-04-07T05:43:24.416Z,99.9
2018-04-07T05:44:31.639Z,99.9
2018-04-07T05:45:38.838Z,99.9
2018-04-07T05:46:46.034Z,99.9
2018-04-07T05:47:53.247Z,99.9
2018-04-07T05:49:00.445Z,99.9
2018-04-07T05:50:07.685Z,99.9
2018-04-07T05:51:14.908Z,99.9
2018-04-07T05:52:22.136Z,99.9
2018-04-07T05:53:29.335Z,99.9
2018-04-07T05:54:36.777Z,99.9
2018-04-07T05:55:43.982Z,99.9
2018-04-07T05:56:51.393Z,99.9
2018-04-07T05:57:58.602Z,99.9
2018-04-07T05:59:05.824Z,99.9
2018-04-07T06:00:13.045Z,99.9
2018-04-07T06:01:20.246Z,99.9
2018-04-07T06:02:27.469Z,99.9
2018-04-07T06:03:34.695Z,99.9
2018-04-07T06:04:41.914Z,99.9
2018-04-07T06:05:49.125Z,99.9
2018-04-07T06:06:56.328Z,99.9
2018-04-07T06:08:03.769Z,99.9
2018-04-07T06:09:10.974Z,99.9
2018-04-07T06:10:18.212Z,99.9
2018-04-07T06:11:25.430Z,99.9
2018-04-07T06:12:32.648Z,99.9
2018-04-07T06:13:39.874Z,99.9
2018-04-07T06:14:47.090Z,99.9
2018-04-07T06:15:54.297Z,99.9
2018-04-07T06:17:01.733Z,99.9
2018-04-07T06:18:08.959Z,99.9
2018-04-07T06:20:38.235Z,99.9
2018-04-07T06:21:45.434Z,99.9
2018-04-07T06:22:52.703Z,99.9
2018-04-07T06:24:00.070Z,99.9
2018-04-07T06:25:07.271Z,99.9
2018-04-07T06:26:14.489Z,99.9
2018-04-07T06:27:21.702Z,99.9
2018-04-07T06:28:28.902Z,99.9
2018-04-07T06:29:35.829Z,99.9
2018-04-07T06:30:42.785Z,99.9
2018-04-07T06:31:49.730Z,99.9
2018-04-07T06:32:56.696Z,99.9
2018-04-07T06:34:03.621Z,99.9
2018-04-07T06:35:10.574Z,99.9
2018-04-07T06:36:17.793Z,99.4
2018-04-07T06:37:25.230Z,99.9
2018-04-07T06:38:32.443Z,95
2018-04-07T06:39:39.602Z,86.1
2018-04-07T06:40:46.534Z,90.6
2018-04-07T06:41:53.716Z,89.9
2018-04-07T06:43:00.975Z,83
2018-04-07T06:44:08.217Z,86
2018-04-07T06:45:14.865Z,84.7
2018-04-07T06:46:22.091Z,73
2018-04-07T06:47:29.324Z,74.7
2018-04-07T06:48:36.800Z,64.9
2018-04-07T06:49:44.010Z,66.1
2018-04-07T06:50:51.452Z,68.1
2018-04-07T06:51:58.676Z,63.4
2018-04-07T06:53:05.839Z,57.8
2018-04-07T06:54:12.794Z,59.4
2018-04-07T06:55:20.003Z,58.6
2018-04-07T06:56:27.235Z,56.8
2018-04-07T06:57:34.451Z,64
2018-04-07T06:58:41.677Z,63.8
2018-04-07T06:59:49.095Z,53.6
2018-04-07T07:00:56.370Z,55.6
2018-04-07T07:02:03.808Z,53.3
2018-04-07T07:03:11.026Z,60.5
2018-04-07T07:04:18.256Z,59.5
2018-04-07T07:05:25.202Z,55.5
2018-04-07T07:06:32.427Z,48.5
2018-04-07T07:07:39.646Z,49.3
2018-04-07T07:08:46.873Z,50.7
2018-04-07T07:09:54.077Z,55.6
2018-04-07T07:11:01.317Z,56
2018-04-07T07:12:08.530Z,49.2
2018-04-07T07:13:15.763Z,53.4
2018-04-07T07:14:23.210Z,52.5
2018-04-07T07:15:30.431Z,56.2
2018-04-07T07:16:37.632Z,47.1
2018-04-07T07:17:44.799Z,47.8
2018-04-07T07:18:52.006Z,49.5
2018-04-07T07:19:59.476Z,44.3
2018-04-07T07:21:06.682Z,43.2
2018-04-07T07:22:13.896Z,43.2
2018-04-07T07:23:21.122Z,46.2
2018-04-07T07:24:28.338Z,40.8
2018-04-07T07:25:35.285Z,43.4
2018-04-07T07:26:42.507Z,40.7
2018-04-07T07:27:49.450Z,36.3
2018-04-07T07:28:56.675Z,40.3
2018-04-07T07:30:03.879Z,39.8
2018-04-07T07:31:11.091Z,39.7
2018-04-07T07:32:18.045Z,39.2
2018-04-07T07:33:25.272Z,40
2018-04-07T07:34:32.502Z,36.4
2018-04-07T07:35:39.654Z,40.4
2018-04-07T07:36:46.928Z,37.4
2018-04-07T07:37:54.199Z,35.5
2018-04-07T07:39:01.428Z,39.4
2018-04-07T07:40:08.679Z,36.1
2018-04-07T07:41:15.915Z,34.4
2018-04-07T07:42:23.365Z,39.2
2018-04-07T07:43:30.352Z,35.6
2018-04-07T07:44:37.525Z,33.2
2018-04-07T07:45:44.754Z,36
2018-04-07T07:46:51.959Z,37.8
2018-04-07T07:47:59.205Z,38.4
2018-04-07T07:49:06.421Z,37
2018-04-07T07:50:13.370Z,35.2
2018-04-07T07:51:20.815Z,35
2018-04-07T07:52:28.020Z,33.6
2018-04-07T07:53:35.221Z,37
2018-04-07T07:54:42.150Z,31.9
2018-04-07T07:55:49.592Z,31.2
2018-04-07T07:56:56.828Z,33.6
2018-04-07T07:58:04.044Z,33.8
2018-04-07T07:59:11.273Z,32.9
2018-04-07T08:00:18.485Z,33.5
2018-04-07T08:01:25.690Z,33.5
2018-04-07T08:02:33.131Z,32.1
2018-04-07T08:03:40.348Z,38.9
2018-04-07T08:04:47.790Z,30.5
2018-04-07T08:05:55.027Z,31.5
2018-04-07T08:07:02.447Z,40.1
2018-04-07T08:08:09.651Z,36.5
2018-04-07T08:09:16.878Z,34.7
2018-04-07T08:10:24.300Z,32.9
2018-04-07T08:11:31.556Z,32.8
2018-04-07T08:12:38.765Z,29.5
2018-04-07T08:13:45.983Z,30.1
2018-04-07T08:14:53.195Z,32.3
2018-04-07T08:16:00.436Z,29.5
2018-04-07T08:17:07.640Z,35.6
2018-04-07T08:18:14.870Z,29.7
2018-04-07T08:19:22.079Z,35.5
2018-04-07T08:20:29.256Z,27.7
2018-04-07T08:21:36.463Z,29.5
2018-04-07T08:22:43.668Z,31.3
2018-04-07T08:23:50.873Z,36
2018-04-07T08:24:58.098Z,35.5
2018-04-07T08:26:05.040Z,30
2018-04-07T08:27:12.254Z,28.8
2018-04-07T08:28:19.465Z,29
2018-04-07T08:29:26.679Z,28.9
2018-04-07T08:30:33.890Z,28
2018-04-07T08:31:41.111Z,28.8
2018-04-07T08:32:48.043Z,27.2
2018-04-07T08:33:54.986Z,26.9
2018-04-07T08:35:02.193Z,27.8
2018-04-07T08:36:09.405Z,29.7
2018-04-07T08:37:16.081Z,26.3
2018-04-07T08:38:23.293Z,29.1
2018-04-07T08:39:30.598Z,28.6
2018-04-07T08:40:37.954Z,32.3
2018-04-07T08:41:45.161Z,31.8
2018-04-07T08:42:52.126Z,25.6
2018-04-07T08:43:59.334Z,25.1
2018-04-07T08:45:06.265Z,28.7
2018-04-07T08:46:13.478Z,25.2
2018-04-07T08:47:20.419Z,24.8
2018-04-07T08:48:27.636Z,26.9
2018-04-07T08:49:34.578Z,26.4
2018-04-07T08:50:41.233Z,29.1
2018-04-07T08:51:48.164Z,28.8
2018-04-07T08:52:55.372Z,28.1
2018-04-07T08:54:02.595Z,28
2018-04-07T08:55:09.806Z,29.1
2018-04-07T08:56:16.740Z,32.3
2018-04-07T08:57:23.694Z,29.7
2018-04-07T08:58:30.781Z,27.8
2018-04-07T09:00:59.575Z,25.2
2018-04-07T09:02:06.514Z,27
2018-04-07T09:03:13.454Z,26.9
2018-04-07T09:04:20.678Z,27.4
2018-04-07T09:05:27.336Z,30.7
2018-04-07T09:06:34.542Z,26.7
2018-04-07T09:07:41.482Z,26.4
2018-04-07T09:08:48.428Z,26.5
2018-04-07T09:09:55.397Z,27.2
2018-04-07T09:11:02.601Z,28.7
2018-04-07T09:12:09.557Z,26.9
2018-04-07T09:13:16.775Z,30.7
2018-04-07T09:14:23.451Z,26.3
2018-04-07T09:15:30.665Z,28.4
2018-04-07T09:16:37.893Z,30.1
2018-04-07T09:17:45.103Z,26.6
2018-04-07T09:18:52.050Z,23.3
2018-04-07T09:19:59.258Z,26.6
2018-04-07T09:21:06.188Z,24.4
2018-04-07T09:22:13.396Z,26.6
2018-04-07T09:23:20.732Z,23.7
2018-04-07T09:24:27.940Z,23.5
2018-04-07T09:25:34.894Z,26.6
2018-04-07T09:26:41.561Z,23.4
2018-04-07T09:27:48.500Z,24.1
2018-04-07T09:28:55.717Z,24.9
2018-04-07T09:30:02.658Z,24
2018-04-07T09:31:09.863Z,23.6
2018-04-07T09:32:17.074Z,25.4
2018-04-07T09:33:24.298Z,29
2018-04-07T09:34:31.517Z,31.2
2018-04-07T09:35:38.731Z,23.5
2018-04-07T09:36:45.963Z,22.2
2018-04-07T09:37:53.170Z,22.8
2018-04-07T09:39:00.139Z,23.3
2018-04-07T09:40:07.348Z,22.1
2018-04-07T09:41:14.301Z,24.1
2018-04-07T09:42:21.514Z,24.4
2018-04-07T09:43:28.735Z,23.7
2018-04-07T09:44:35.953Z,24.4
2018-04-07T09:45:43.166Z,21.5
2018-04-07T09:46:50.383Z,23.6
2018-04-07T09:47:57.599Z,21.1
2018-04-07T09:49:04.810Z,21.6
2018-04-07T09:50:12.028Z,28.8
2018-04-07T09:51:19.253Z,23.8
2018-04-07T09:52:26.476Z,26.1
2018-04-07T09:53:33.692Z,27.2
2018-04-07T09:54:40.900Z,24.3
2018-04-07T09:55:47.842Z,29.2
2018-04-07T09:56:55.049Z,24.1
2018-04-07T09:58:02.263Z,21.4
2018-04-07T09:59:09.214Z,23.5
2018-04-07T10:00:16.425Z,20
2018-04-07T10:01:23.647Z,21.8
2018-04-07T10:02:30.857Z,19.9
2018-04-07T10:03:38.067Z,19.3
2018-04-07T10:04:45.015Z,19.3
2018-04-07T10:05:52.236Z,23
2018-04-07T10:06:59.452Z,22.7
2018-04-07T10:08:06.680Z,22.1
2018-04-07T10:09:13.900Z,21.6
2018-04-07T10:10:20.835Z,22.1
2018-04-07T10:11:28.057Z,25.2
2018-04-07T10:12:35.266Z,25.3
2018-04-07T10:13:42.502Z,21.7
2018-04-07T10:14:49.438Z,17.9
2018-04-07T10:15:56.371Z,17.3
2018-04-07T10:17:03.604Z,21.2
2018-04-07T10:18:10.814Z,23.8
2018-04-07T10:19:18.025Z,24.8
2018-04-07T10:20:24.964Z,22.8
2018-04-07T10:21:32.178Z,23.1
2018-04-07T10:22:39.400Z,22.1
2018-04-07T10:23:46.619Z,19.7
2018-04-07T10:24:53.845Z,20.8
2018-04-07T10:26:01.057Z,17.2
2018-04-07T10:27:08.299Z,16.4
2018-04-07T10:28:15.587Z,17.5
2018-04-07T10:29:22.897Z,24.3
2018-04-07T10:30:30.126Z,24.2
2018-04-07T10:31:37.339Z,22.5
2018-04-07T10:32:44.580Z,23.7
2018-04-07T10:33:51.783Z,18.7
2018-04-07T10:34:59.002Z,21
2018-04-07T10:36:06.217Z,22.1
2018-04-07T10:37:13.472Z,18.6
2018-04-07T10:38:20.403Z,18.2
2018-04-07T10:39:27.365Z,19.6
2018-04-07T10:40:34.591Z,24
2018-04-07T10:41:41.529Z,23
2018-04-07T10:42:48.741Z,21.3
2018-04-07T10:43:55.632Z,18.8
2018-04-07T10:45:03.034Z,22.7
2018-04-07T10:46:10.248Z,24.3
2018-04-07T10:47:17.258Z,23.1
2018-04-07T10:48:24.598Z,23.3
2018-04-07T10:49:31.546Z,20.2
2018-04-07T10:50:38.994Z,17.7
2018-04-07T10:51:46.212Z,18.6
2018-04-07T10:52:53.387Z,17.4
2018-04-07T10:54:00.616Z,17.6
2018-04-07T10:55:07.840Z,18.4
2018-04-07T10:56:14.497Z,18.8
2018-04-07T10:57:21.187Z,22.1
2018-04-07T10:58:28.393Z,16.8
2018-04-07T10:59:35.639Z,17
2018-04-07T11:00:42.601Z,17
2018-04-07T11:01:50.032Z,18.9
2018-04-07T11:02:57.276Z,22.7
2018-04-07T11:04:04.723Z,21.8
2018-04-07T11:05:11.669Z,18.9
2018-04-07T11:06:18.644Z,18.7
2018-04-07T11:07:25.035Z,21.6
2018-04-07T11:08:32.275Z,19.3
2018-04-07T11:09:39.517Z,17.5
2018-04-07T11:10:46.754Z,18.6
2018-04-07T11:11:53.701Z,18.2
2018-04-07T11:13:01.144Z,19.5
2018-04-07T11:14:08.373Z,18
2018-04-07T11:15:15.829Z,17.6
2018-04-07T11:16:23.047Z,16.7
2018-04-07T11:17:29.714Z,19.6
2018-04-07T11:18:36.951Z,17
2018-04-07T11:19:43.895Z,25.3
2018-04-07T11:20:50.571Z,17.7
2018-04-07T11:21:57.522Z,14.6
2018-04-07T11:23:04.740Z,16.9
2018-04-07T11:24:12.175Z,18.4
2018-04-07T11:25:19.392Z,14.7
2018-04-07T11:26:26.562Z,16.3
2018-04-07T11:27:33.788Z,20.6
2018-04-07T11:28:40.743Z,19
2018-04-07T11:29:47.961Z,17.4
2018-04-07T11:30:55.181Z,20
2018-04-07T11:32:02.415Z,20.1
2018-04-07T11:33:09.650Z,20.3
2018-04-07T11:34:16.890Z,17.4
2018-04-07T11:35:24.113Z,15.4
2018-04-07T11:36:31.133Z,18.4
2018-04-07T11:37:38.114Z,14.7
2018-04-07T11:38:44.776Z,17.8
2018-04-07T11:39:51.968Z,16.1
2018-04-07T11:40:59.186Z,15.7
2018-04-07T11:42:06.368Z,14.1
2018-04-07T11:43:13.303Z,15.3
2018-04-07T11:44:20.515Z,14.5
2018-04-07T11:45:27.184Z,15.1
2018-04-07T11:46:34.395Z,15.1
2018-04-07T11:47:41.621Z,12.9
2018-04-07T11:48:48.853Z,17.3
2018-04-07T11:49:55.525Z,19.3
2018-04-07T11:51:02.699Z,15
2018-04-07T11:52:09.914Z,13.3
2018-04-07T11:53:17.372Z,13.5
2018-04-07T11:54:24.313Z,14.9
2018-04-07T11:55:31.551Z,18.7
2018-04-07T11:56:38.518Z,17
2018-04-07T11:57:45.743Z,14.6
2018-04-07T11:58:52.685Z,15.3
2018-04-07T11:59:59.917Z,19.7
2018-04-07T12:01:06.873Z,15.5
2018-04-07T12:02:14.050Z,20.1
2018-04-07T12:03:21.003Z,21.5
2018-04-07T12:04:28.243Z,18.3
2018-04-07T12:05:35.464Z,17.5
2018-04-07T12:06:42.917Z,18.3
2018-04-07T12:07:49.590Z,21.2
2018-04-07T12:08:56.807Z,19.8
2018-04-07T12:10:04.045Z,18.8
2018-04-07T12:11:11.282Z,16
2018-04-07T12:12:18.240Z,16.9
2018-04-07T12:13:25.695Z,17.7
2018-04-07T12:14:32.931Z,14.3
2018-04-07T12:15:40.368Z,17.8
2018-04-07T12:16:47.624Z,17.8
2018-04-07T12:17:54.592Z,16.9
2018-04-07T12:19:01.544Z,15
2018-04-07T12:20:08.698Z,15.4
2018-04-07T12:21:15.919Z,16.6
2018-04-07T12:22:23.090Z,14.1
2018-04-07T12:23:30.038Z,13.8
2018-04-07T12:24:36.743Z,17.6
2018-04-07T12:25:43.401Z,15.7
2018-04-07T12:26:50.352Z,16.8
2018-04-07T12:27:57.053Z,17.4
2018-04-07T12:29:04.020Z,18.2
2018-04-07T12:30:11.246Z,15.9
2018-04-07T12:31:18.429Z,16.2
2018-04-07T12:32:25.646Z,14.2
2018-04-07T12:33:33.127Z,22.4
2018-04-07T12:34:40.343Z,15.6
2018-04-07T12:35:47.306Z,18.6
2018-04-07T12:36:54.540Z,12.3
2018-04-07T12:38:01.227Z,15.1
2018-04-07T12:39:08.471Z,12.9
2018-04-07T12:40:15.174Z,16.1
2018-04-07T12:41:22.110Z,13.6
2018-04-07T12:42:29.545Z,14.2
2018-04-07T12:43:36.758Z,13.3
2018-04-07T12:44:43.985Z,12.7
2018-04-07T12:45:51.206Z,12.6
2018-04-07T12:46:58.435Z,14.4
2018-04-07T12:48:05.679Z,13.3
2018-04-07T12:49:12.960Z,14
2018-04-07T12:50:20.196Z,14
2018-04-07T12:51:27.440Z,13.6
2018-04-07T12:52:34.658Z,14.7
2018-04-07T12:53:41.916Z,14.5
2018-04-07T12:54:49.144Z,12.9
2018-04-07T12:55:56.588Z,12.5
2018-04-07T12:57:03.802Z,14.7
2018-04-07T12:58:11.027Z,15.8
2018-04-07T12:59:17.973Z,13.5
2018-04-07T13:00:25.227Z,13.8
2018-04-07T13:01:32.461Z,15.7
2018-04-07T13:02:39.916Z,13.4
2018-04-07T13:03:47.150Z,15.2
2018-04-07T13:04:54.371Z,15.4
2018-04-07T13:06:01.581Z,12.9
2018-04-07T13:07:08.855Z,15.3
2018-04-07T13:08:16.078Z,14.5
2018-04-07T13:09:23.512Z,14.3
2018-04-07T13:10:30.732Z,16.5
2018-04-07T13:11:37.904Z,13.8
2018-04-07T13:12:44.912Z,15.4
2018-04-07T13:13:52.197Z,12.5
2018-04-07T13:14:59.140Z,11
2018-04-07T13:16:06.106Z,13.8
2018-04-07T13:17:13.342Z,12
2018-04-07T13:18:20.315Z,13.9
2018-04-07T13:19:27.530Z,11.8
2018-04-07T13:20:34.987Z,12.7
2018-04-07T13:21:42.207Z,14.5
2018-04-07T13:22:49.456Z,11
2018-04-07T13:23:56.667Z,11.5
2018-04-07T13:25:03.635Z,10.9
2018-04-07T13:26:10.872Z,13.1
2018-04-07T13:27:18.146Z,12.3
2018-04-07T13:28:25.397Z,13.2
2018-04-07T13:29:32.624Z,13.9
2018-04-07T13:30:39.879Z,10.9
2018-04-07T13:31:47.104Z,14.9
2018-04-07T13:32:54.322Z,12.7
2018-04-07T13:34:01.560Z,10.1
2018-04-07T13:35:08.774Z,11.8
2018-04-07T13:36:16.254Z,8.9
2018-04-07T13:37:23.455Z,10.3
2018-04-07T13:38:30.908Z,12.6
2018-04-07T13:39:38.128Z,11.1
2018-04-07T13:40:45.344Z,12.5
2018-04-07T13:41:52.567Z,11.4
2018-04-07T13:42:59.523Z,11.4
2018-04-07T13:44:06.793Z,10.5
2018-04-07T13:46:35.944Z,12.8
2018-04-07T13:47:43.183Z,12.5
2018-04-07T13:48:50.150Z,12.6
2018-04-07T13:49:57.100Z,10.7
2018-04-07T13:51:04.323Z,9.6
2018-04-07T13:52:11.541Z,10.8
2018-04-07T13:53:18.800Z,10.8
2018-04-07T13:54:25.704Z,12.4
2018-04-07T13:55:32.923Z,12
2018-04-07T13:56:40.384Z,12.5
2018-04-07T13:57:47.619Z,11.2
2018-04-07T13:58:54.630Z,11.3
2018-04-07T14:00:01.648Z,11.2
2018-04-07T14:01:08.613Z,11.7
2018-04-07T14:02:15.834Z,15.7
2018-04-07T14:03:23.305Z,9.4
2018-04-07T14:04:30.226Z,10.3
2018-04-07T14:05:37.718Z,9.7
2018-04-07T14:06:44.664Z,13.3
2018-04-07T14:07:51.929Z,14.1
2018-04-07T14:08:59.162Z,12
2018-04-07T14:10:06.133Z,13.3
2018-04-07T14:11:12.806Z,13.4
2018-04-07T14:12:20.052Z,11.6
2018-04-07T14:13:27.286Z,11.3
2018-04-07T14:14:34.737Z,13.4
2018-04-07T14:15:42.008Z,13
2018-04-07T14:16:49.021Z,11.1
2018-04-07T14:17:56.337Z,10.7
2018-04-07T14:19:03.812Z,11
2018-04-07T14:20:11.067Z,11.6
2018-04-07T14:21:18.074Z,10.6
2018-04-07T14:22:25.052Z,11.2
2018-04-07T14:23:32.511Z,9.7
2018-04-07T14:24:39.746Z,10.7
2018-04-07T14:25:46.969Z,9.5
2018-04-07T14:26:54.193Z,11.1
2018-04-07T14:28:01.421Z,9.4
2018-04-07T14:29:08.636Z,9
2018-04-07T14:30:15.875Z,10
2018-04-07T14:31:23.099Z,10.8
2018-04-07T14:32:30.527Z,9.4
2018-04-07T14:33:37.744Z,10.5
2018-04-07T14:34:44.981Z,11.8
2018-04-07T14:35:52.191Z,11.1
2018-04-07T14:36:59.428Z,10.6
2018-04-07T14:38:06.385Z,11.1
2018-04-07T14:39:13.341Z,10.4
2018-04-07T14:40:20.290Z,10.2
2018-04-07T14:41:27.507Z,8.9
2018-04-07T14:42:34.731Z,9.6
2018-04-07T14:43:41.927Z,9.7
2018-04-07T14:44:48.871Z,11.1
2018-04-07T14:45:56.053Z,10.1
2018-04-07T14:47:03.001Z,10.7
2018-04-07T14:48:10.227Z,11.7
2018-04-07T14:49:16.902Z,10.4
2018-04-07T14:50:24.143Z,9.4
2018-04-07T14:51:31.396Z,9.9
2018-04-07T14:52:38.635Z,10
2018-04-07T14:53:45.809Z,10.4
2018-04-07T14:54:53.268Z,10.2
2018-04-07T14:56:00.488Z,13.1
2018-04-07T14:57:07.706Z,10
2018-04-07T14:58:14.928Z,13.5
2018-04-07T14:59:21.623Z,11.7
2018-04-07T15:00:28.610Z,9.6
2018-04-07T15:01:35.568Z,9.3
2018-04-07T15:02:42.805Z,10.2
2018-04-07T15:03:50.034Z,8.3
2018-04-07T15:04:56.982Z,11.1
2018-04-07T15:06:04.221Z,9.4